Gaslog data for Box

Go Back   Gas Savers - Fuel Efficiency Forum > Garage > Box
Add Garage Entry Top Ten Entries Search the Garage


Welcome, non logged-in user
Your Garage


Gaslog data for Box
Date Distance Fuel Used Cost of Fuel Notes MPG(US)
06/07/2009 330.5 8.657 2.52 38.17
06/05/2009 373.5 10.668 2.539 35.01
05/31/2009 369.9 10.379 2.59 35.63
05/17/2009 372.3 10.274 2.259 36.23
04/19/2009 398.8 11.019 2.1 36.19
04/15/2009 328.5 8.874 1.9 37.01
04/13/2009 348.2 9.784 2.02 35.58
04/06/2009 535.6 15.116 2.1Had to throw a few gallons in to get out of the insane gas prices of the NYC area, thus it appearing I used more gas than the tank holds.35.43
03/25/2009 307.2 9.734 1.96This tank included an autocrossing event, which did not help my average MPG.31.55
03/08/2009 284.3 8.934 1.9 31.82
03/01/2009 351.1 10.604 1.82 33.11
02/23/2009 340.7 9.911 1.91 34.37
02/14/2009 272.1 8.317 1.89 32.71
02/05/2009 468.1 14.841 1.81Tank was refilled partially before a complete fillup, thus the odd distance & gallons numbers.31.54
01/25/2009 375.4 11.29 1.8 33.25
01/20/2009 283.8 8.69 1.8 32.65
01/05/2009 349 10.452 1.71Sub-freezing temps all week.33.39
01/01/2009 350 10.257 1.67 34.12
12/25/2008 287.7 9.011 1.53This tank involved a 3-day snowstorm, and I got stuck *twice* so there was a lot of revving and spinning wheels killing my MPG, not to mention the sub-freezing temps, idling while scraping, and running the A/C to get the windows clear.31.92
12/19/2008 375.7 10.969 1.64 34.25
12/12/2008 378.3 10.882 1.69 34.76
12/04/2008 361 9.841 1.721st full tank with front undertray36.68
12/01/2008 317.8 9.276 1.8New front undertray added about halfway through this tank.34.26
11/23/2008 360.1 10.75 1.87I hate winter, this tank was doing pretty good until two sub-30deg days.33.49
11/16/2008 353.7 9.876 2First tank with new grille block35.81
11/09/2008 317.6 9.057 2.19 35.06
11/02/2008 378.5 10.907 2.39 34.70
10/24/2008 429.5 12.64 2.459 33.97
10/04/2008 377.5 10.494 3.36still borrowing car35.97
10/03/2008 303.2 8.367 3.4still borrowing car36.23
10/02/2008 322.1 9.544 3.46still borrowing car33.74
09/26/2008 317.1 9.339 3.5still borrowing car33.95
09/24/2008 320.7 9.147 3.62still borrowing car35.06
09/22/2008 378.8 10.016 3.48Still borrowing car37.81
09/18/2008 307 7.684 3.58My g/f is borrowing Box to move, this tank is all her.39.95
09/17/2008 305.6 8.07 3.58My g/f is borrowing Box to move, this tank is all her.37.86
09/15/2008 345.9 10.02 3.58I'm impressed with how good this tank was, as I went autocrossing during it. So I achieved over 34mpg despite a bunch of idling with the A/C on full blast, interspersed with driving like a madman through a cone slalom course.34.52
09/12/2008 372.5 10.901 3.53 34.17
09/02/2008 238.6 6.665 3.56 35.79
08/30/2008 348 9.63 3.5New oxygen sensor & plugs regapped to .044 2/3rds of the way through this tank.36.13
08/22/2008 358.7 9.444 3.62 37.98
08/10/2008 397.5 11.589 3.76First full tank with rear undertray. However this was a *terrible* tank for unrelated reasons. I spent about two hours in slow/stopped traffic with the A/C going full tilt & the wipers on so my MPG was miserable.34.29
08/05/2008 357.2 10.432 3.88 34.24
07/27/2008 314 10.743 3.96This tank is correcting the underfilling from the last tank, thus the low MPG.29.22
07/19/2008 417 10.025 4.34I discovered after I'd gotten back in the car that the pump had clicked off early, the tank wasn't actually full. So this is an incorrect MPG figure, but it should self-correct with the next fillup.41.59
07/11/2008 447.6 12.051 4.06I stopped to put a little gas in the tank to get me over the border into MA where gas is $.20 cheaper, thus this tank appearing to have used more than the car holds.37.14
07/06/2008 247.4 7.041 4.1 35.13
07/03/2008 313.5 8.286 4.04 37.83
06/30/2008 386.7 10.691 4.28 36.17
06/28/2008 400.7 10.652 4.2 37.61
06/21/2008 337 8.699 4.02Switched from Yokohama tires to Stock Goodyears about 1/3rd of the way through this tank. Aired the Goodyears up to 38psi (where I'd had the Yokohamas) about 2/3rd of the way through.38.74
06/13/2008 195.2 5.498 4.02 35.50
06/08/2008 130.8 4.101 4.1 31.89
06/03/2008 283.7 7.471 4 37.97
05/31/2008 298.9 8.509 4 35.12
05/26/2008 257 6.979 3.88 36.82
05/19/2008 183.3 5.034 3.8 36.41
05/17/2008 334.6 9.283 3.7 36.04
05/09/2008 273 7.342 3.68 37.18
05/05/2008 213.6 6.617 3.54 32.28
05/03/2008 334.3 8.623 3.78 38.76
04/27/2008 322.6 8.32 3.54 38.77
04/20/2008 357 10.047 3.38 35.53
04/18/2008 359.3 9.773 3.3 36.76
04/13/2008 396.1 11.05 3.18This was my longest tank, nearly 400miles and I still had a gallon of gas left.35.84
04/08/2008 354.6 10.733 3.33 33.03
04/01/2008 210.9 6.162 3.2 34.22
03/30/2008 296 9.35 3.1This tank's mileage was shockingly low, my scanguage claimed I'd used 8.7gal which the pump said 9.35. I've never been to this station before and can't help wondering if the pump was mis-adjusted.31.65
03/22/2008 317.3 9.195 3.3Had to fill up in CT rather than MA, the difference in gas prices was painful.34.50
03/14/2008 291.3 8.751 3.08 33.28
03/07/2008 222.1 6.47 3.04 34.32
03/04/2008 169.8 4.689 3.06Temps for the last two tanks were under 35deg. Temps for this one were above 40deg. Weather seems to play an impressive role in my mileage. 36.21
03/03/2008 314.3 9.675 3.02 32.48
02/24/2008 327.3 9.807 3.06 33.37
02/17/2008 301.9 9.619 3.12 31.38
02/08/2008 160 4.478 2.94 35.73
02/05/2008 140.6 3.867 2.99 36.35
02/03/2008 301.8 9.57 3 31.53
01/21/2008 258.9 8.406 3Loaned the Box to a friend for half this tank. Most of this was driving around Boston.30.79
01/18/2008 329.2 10.158 3.06Scangauge showed this tank at 35 MPG for the tank, which was decent. Turns out it still needed further calibration. My work commute is a MPG killer.32.40
01/13/2008 374 11 1.8 34
01/11/2008 136.7 3.71 3.06First tank using the scanguage. 36.84
01/08/2008 355.3 10.318 3.1 34.43
01/06/2008 241.4 7.972 3.04 30.28
01/01/2008 317.5 9.696 3 32.74
12/25/2007 263.3 8.126 3 32.40
12/22/2007 286.9 9.614 3.04 29.84
12/15/2007 206.9 6.885 2.979One rainstorm & one blizzard did nothing good for this tank.30.05
12/11/2007 225.1 6.158 3Have no idea how I managed to get this good a tank. This was very mixed driving with a lot of around town driving, some rush-hour traffic and some extended highway. I even messed up several times and strayed up around 80mph on the highway.36.55
12/09/2007 192.8 6.2 3.04First tank after new platinum plugs, oil change, synthetic trans fluid, and removing snorkel from airbox.31.09
12/08/2007 90.9 3.645 3.15Mostly around town & short commute to work, 2 snowstorms24.93
12/04/2007 280 9.14 2.95First tank in the Scion. This is without touching tire pressure, spark plugs, etc. Most of it was in at or below freezing temps, inc one snow/ice storm. Two instances of idling while scraping windows, and a variety of short hops & long (hour+) trips.30.63


All times are GMT -6. The time now is 01:15 AM.


Copyright 2005-2008 GasSavers.Org